createdAt,value
2022-08-08T00:02:03.659Z,20.04
2022-08-08T00:04:49.326Z,19.81
2022-08-08T00:07:30.303Z,19.98
2022-08-08T00:10:07.013Z,19.81
2022-08-08T00:12:56.484Z,19.83
2022-08-08T00:15:57.130Z,19.69
2022-08-08T00:18:26.817Z,19.54
2022-08-08T00:20:58.605Z,19.62
2022-08-08T00:23:43.141Z,19.74
2022-08-08T00:26:21.618Z,19.56
2022-08-08T00:29:02.509Z,19.77
2022-08-08T00:32:28.339Z,19.77
2022-08-08T00:35:05.110Z,19.79
2022-08-08T00:37:45.370Z,19.61
2022-08-08T00:41:08.979Z,19.42
2022-08-08T00:44:00.791Z,19.41
2022-08-08T00:47:19.330Z,19.36
2022-08-08T00:50:35.485Z,19.53
2022-08-08T00:53:18.711Z,19.36
2022-08-08T00:56:16.497Z,19.22
2022-08-08T00:59:44.624Z,19.31
2022-08-08T01:03:57.974Z,19.29
2022-08-08T01:06:05.778Z,19.18
2022-08-08T01:09:36.179Z,19.04
2022-08-08T01:12:43.138Z,19.04
2022-08-08T01:15:54.439Z,19.15
2022-08-08T01:18:54.167Z,19.10
2022-08-08T01:22:07.195Z,19.09
2022-08-08T01:24:58.955Z,19.01
2022-08-08T01:28:02.539Z,19.27
2022-08-08T01:31:10.519Z,19.27
2022-08-08T01:34:36.146Z,18.97
2022-08-08T01:37:41.246Z,19.08
2022-08-08T01:40:36.477Z,19.00
2022-08-08T01:43:14.331Z,18.95
2022-08-08T01:45:56.721Z,19.11
2022-08-08T01:48:46.360Z,18.93
2022-08-08T01:52:47.308Z,18.99
2022-08-08T01:55:26.944Z,18.78
2022-08-08T01:58:11.548Z,18.86
2022-08-08T02:00:44.604Z,18.88
2022-08-08T02:03:55.648Z,18.74
2022-08-08T02:06:31.757Z,18.66
2022-08-08T02:09:16.266Z,18.72
2022-08-08T02:11:52.834Z,18.58
2022-08-08T02:14:55.683Z,18.89
2022-08-08T02:17:42.908Z,18.60
2022-08-08T02:21:02.605Z,18.53
2022-08-08T02:23:22.658Z,18.63
2022-08-08T02:26:00.615Z,18.45
2022-08-08T02:28:48.229Z,18.77
2022-08-08T02:31:59.654Z,18.43
2022-08-08T02:35:11.001Z,18.29
2022-08-08T02:38:32.688Z,18.20
2022-08-08T02:41:59.383Z,18.22
2022-08-08T02:44:56.951Z,18.20
2022-08-08T02:48:13.297Z,18.15
2022-08-08T02:51:30.087Z,18.25
2022-08-08T02:54:53.747Z,18.14
2022-08-08T02:58:07.507Z,18.06
2022-08-08T03:01:14.986Z,17.89
2022-08-08T03:05:04.758Z,17.95
2022-08-08T03:07:59.424Z,17.88
2022-08-08T03:11:13.868Z,17.86
2022-08-08T03:15:58.742Z,17.90
2022-08-08T03:17:38.912Z,17.87
2022-08-08T03:20:11.650Z,17.80
2022-08-08T03:22:51.047Z,17.85
2022-08-08T03:25:35.562Z,17.67
2022-08-08T03:28:08.942Z,17.83
2022-08-08T03:30:39.601Z,17.96
2022-08-08T03:33:56.316Z,17.82
2022-08-08T03:36:15.967Z,17.94
2022-08-08T03:38:54.903Z,17.68
2022-08-08T03:42:12.798Z,17.71
2022-08-08T03:44:25.395Z,17.94
2022-08-08T03:46:55.977Z,17.73
2022-08-08T03:49:57.941Z,17.95
2022-08-08T03:52:17.222Z,17.89
2022-08-08T03:55:02.338Z,17.75
2022-08-08T03:58:32.068Z,17.83
2022-08-08T04:00:30.729Z,17.70
2022-08-08T04:03:11.576Z,17.72
2022-08-08T04:05:48.094Z,17.97
2022-08-08T04:08:33.629Z,17.86
2022-08-08T04:11:10.924Z,17.79
2022-08-08T04:14:03.705Z,17.55
2022-08-08T04:16:40.236Z,17.96
2022-08-08T04:19:24.166Z,17.96
2022-08-08T04:21:58.951Z,17.81
2022-08-08T04:24:31.986Z,18.04
2022-08-08T04:27:07.569Z,17.87
2022-08-08T04:29:55.175Z,17.74
2022-08-08T04:32:30.686Z,18.15
2022-08-08T04:35:13.188Z,17.83
2022-08-08T04:37:43.291Z,18.11
2022-08-08T04:40:19.119Z,17.71
2022-08-08T04:43:00.828Z,17.62
2022-08-08T04:45:40.454Z,17.94
2022-08-08T04:48:09.377Z,18.04
2022-08-08T04:50:45.904Z,17.73
2022-08-08T04:54:27.124Z,17.83
2022-08-08T04:56:08.943Z,17.86
2022-08-08T04:58:39.194Z,17.77
2022-08-08T05:01:10.789Z,18.17
2022-08-08T05:04:09.956Z,18.23
2022-08-08T05:06:39.129Z,18.19
2022-08-08T05:09:08.807Z,18.17
2022-08-08T05:11:40.868Z,18.03
2022-08-08T05:14:14.739Z,18.16
2022-08-08T05:16:55.642Z,18.18
2022-08-08T05:20:04.288Z,18.12
2022-08-08T05:22:27.766Z,18.13
2022-08-08T05:24:58.126Z,18.02
2022-08-08T05:27:26.617Z,18.30
2022-08-08T05:30:03.353Z,18.46
2022-08-08T05:32:41.129Z,18.18
2022-08-08T05:35:15.076Z,18.13
2022-08-08T05:37:54.000Z,18.53
2022-08-08T05:40:58.202Z,18.48
2022-08-08T05:43:39.260Z,18.52
2022-08-08T05:46:16.273Z,18.54
2022-08-08T05:48:52.117Z,18.42
2022-08-08T05:51:24.742Z,18.67
2022-08-08T05:54:28.562Z,18.78
2022-08-08T05:56:46.869Z,18.54
2022-08-08T05:59:59.642Z,18.56
2022-08-08T06:02:40.917Z,18.72
2022-08-08T06:05:33.460Z,18.69
2022-08-08T06:08:09.349Z,19.46
2022-08-08T06:10:40.781Z,19.13
2022-08-08T06:13:10.007Z,19.17
2022-08-08T06:15:50.817Z,19.32
2022-08-08T06:18:34.096Z,19.15
2022-08-08T06:21:11.613Z,19.45
2022-08-08T06:24:04.675Z,19.33
2022-08-08T06:26:45.429Z,19.33
2022-08-08T06:29:59.476Z,19.48
2022-08-08T06:32:20.750Z,19.53
2022-08-08T06:35:12.025Z,19.50
2022-08-08T06:38:00.631Z,19.80
2022-08-08T06:40:37.006Z,19.95
2022-08-08T06:43:11.617Z,20.12
2022-08-08T06:46:01.945Z,19.86
2022-08-08T06:48:32.747Z,20.40
2022-08-08T06:51:08.344Z,20.45
2022-08-08T06:53:39.366Z,20.22
2022-08-08T06:56:11.477Z,20.43
2022-08-08T06:58:44.914Z,20.28
2022-08-08T07:02:17.100Z,20.06
2022-08-08T07:04:39.801Z,20.09
2022-08-08T07:07:09.639Z,20.10
2022-08-08T07:09:59.310Z,20.65
2022-08-08T07:12:41.000Z,20.40
2022-08-08T07:15:32.786Z,20.42
2022-08-08T07:18:35.919Z,20.36
2022-08-08T07:21:02.232Z,20.59
2022-08-08T07:23:57.618Z,20.50
2022-08-08T07:26:37.899Z,20.52
2022-08-08T07:29:11.640Z,20.63
2022-08-08T07:31:56.747Z,21.02
2022-08-08T07:34:32.113Z,21.38
2022-08-08T07:37:11.936Z,21.19
2022-08-08T07:39:56.177Z,21.35
2022-08-08T07:42:33.463Z,21.46
2022-08-08T07:45:05.500Z,21.38
2022-08-08T07:47:39.341Z,21.81
2022-08-08T07:50:10.788Z,21.90
2022-08-08T07:52:44.442Z,21.77
2022-08-08T07:55:28.597Z,22.05
2022-08-08T07:58:14.764Z,21.98
2022-08-08T08:00:49.464Z,22.02
2022-08-08T08:03:23.738Z,22.11
2022-08-08T08:05:59.347Z,22.26
2022-08-08T08:08:50.146Z,22.43
2022-08-08T08:11:33.982Z,22.22
2022-08-08T08:14:19.484Z,22.31
2022-08-08T08:16:50.822Z,22.44
2022-08-08T08:19:23.111Z,22.49
2022-08-08T08:21:58.379Z,22.71
2022-08-08T08:24:46.871Z,22.55
2022-08-08T08:27:21.811Z,22.73
2022-08-08T08:29:54.430Z,23.32
2022-08-08T08:32:35.805Z,23.05
2022-08-08T08:35:15.305Z,23.30
2022-08-08T08:38:12.935Z,23.50
2022-08-08T08:40:34.698Z,23.45
2022-08-08T08:43:07.879Z,23.79
2022-08-08T08:45:40.874Z,23.73
2022-08-08T08:48:16.443Z,23.48
2022-08-08T08:50:51.991Z,23.62
2022-08-08T08:53:55.277Z,24.04
2022-08-08T08:56:18.304Z,23.81
2022-08-08T08:58:58.043Z,23.94
2022-08-08T09:01:35.484Z,24.24
2022-08-08T09:04:31.577Z,24.00
2022-08-08T09:07:03.235Z,24.08
2022-08-08T09:09:47.878Z,24.20
2022-08-08T09:12:24.684Z,24.49
2022-08-08T09:14:58.886Z,24.73
2022-08-08T09:17:41.973Z,24.70
2022-08-08T09:22:01.960Z,24.84
2022-08-08T09:23:17.369Z,25.14
2022-08-08T09:26:02.039Z,25.50
2022-08-08T09:28:40.156Z,25.36
2022-08-08T09:31:42.262Z,25.38
2022-08-08T09:34:32.110Z,25.61
2022-08-08T09:37:46.362Z,25.83
2022-08-08T09:40:00.814Z,25.53
2022-08-08T09:42:35.574Z,26.02
2022-08-08T09:45:20.499Z,26.38
2022-08-08T09:48:17.712Z,26.64
2022-08-08T09:50:51.675Z,26.75
2022-08-08T09:53:52.950Z,26.62
2022-08-08T09:56:22.124Z,27.53
2022-08-08T09:59:03.391Z,27.35
2022-08-08T10:01:59.186Z,27.35
2022-08-08T10:04:41.310Z,28.25
2022-08-08T10:07:13.960Z,29.15
2022-08-08T10:09:58.681Z,30.71
2022-08-08T10:12:52.536Z,32.47
2022-08-08T10:15:24.174Z,33.20
2022-08-08T10:18:05.312Z,34.52
2022-08-08T10:20:51.072Z,34.17
2022-08-08T10:23:44.256Z,34.77
2022-08-08T10:26:30.850Z,33.89
2022-08-08T10:29:11.299Z,33.34
2022-08-08T10:31:58.250Z,32.07
2022-08-08T10:34:28.725Z,31.35
2022-08-08T10:37:00.222Z,31.71
2022-08-08T10:39:31.542Z,31.44
2022-08-08T10:42:16.279Z,32.55
2022-08-08T10:44:45.778Z,31.55
2022-08-08T10:47:15.780Z,30.72
2022-08-08T10:50:02.023Z,30.82
2022-08-08T10:52:33.771Z,30.61
2022-08-08T10:55:06.961Z,30.65
2022-08-08T10:57:45.230Z,31.10
2022-08-08T11:00:23.251Z,32.00
2022-08-08T11:02:53.991Z,31.94
2022-08-08T11:05:23.064Z,30.84
2022-08-08T11:08:37.193Z,31.53
2022-08-08T11:10:42.175Z,32.49
2022-08-08T11:13:30.009Z,33.78
2022-08-08T11:16:01.181Z,34.48
2022-08-08T11:18:36.658Z,35.55
2022-08-08T11:21:09.134Z,36.45
2022-08-08T11:23:43.496Z,37.05
2022-08-08T11:26:19.228Z,36.42
2022-08-08T11:28:50.265Z,36.87
2022-08-08T11:31:18.423Z,37.19
2022-08-08T11:34:02.930Z,37.07
2022-08-08T11:36:32.694Z,38.00
2022-08-08T11:39:12.713Z,36.92
2022-08-08T11:41:45.126Z,37.58
2022-08-08T11:44:15.846Z,37.34
2022-08-08T11:46:45.372Z,38.05
2022-08-08T11:49:22.864Z,37.80
2022-08-08T11:51:52.550Z,37.28
2022-08-08T11:54:38.329Z,36.78
2022-08-08T11:57:21.875Z,37.98
2022-08-08T12:00:01.279Z,37.36
2022-08-08T12:02:48.360Z,36.32
2022-08-08T12:05:22.843Z,36.66
2022-08-08T12:07:56.007Z,37.81
2022-08-08T12:10:30.174Z,37.03
2022-08-08T12:13:05.053Z,36.95
2022-08-08T12:15:42.515Z,36.62
2022-08-08T12:18:21.366Z,37.54
2022-08-08T12:20:50.944Z,36.14
2022-08-08T12:23:43.100Z,37.20
2022-08-08T12:26:28.485Z,36.74
2022-08-08T12:29:04.780Z,37.33
2022-08-08T12:31:39.371Z,36.57
2022-08-08T12:34:37.722Z,36.77
2022-08-08T12:37:08.451Z,37.41
2022-08-08T12:39:59.913Z,36.72
2022-08-08T12:42:32.929Z,36.49
2022-08-08T12:45:59.197Z,36.68
2022-08-08T12:48:09.590Z,36.41
2022-08-08T12:50:49.056Z,36.62
2022-08-08T12:53:30.223Z,36.63
2022-08-08T12:56:17.428Z,36.74
2022-08-08T12:58:54.250Z,36.71
2022-08-08T13:01:36.322Z,37.06
2022-08-08T13:04:19.161Z,36.57
2022-08-08T13:07:03.166Z,36.83
2022-08-08T13:10:01.993Z,36.71
2022-08-08T13:12:29.465Z,36.62
2022-08-08T13:15:03.097Z,36.53
2022-08-08T13:18:07.652Z,37.16
2022-08-08T13:20:22.030Z,37.02
2022-08-08T13:22:51.555Z,36.08
2022-08-08T13:25:27.439Z,35.91
2022-08-08T13:28:00.705Z,35.76
2022-08-08T13:30:31.083Z,35.43
2022-08-08T13:33:01.400Z,35.30
2022-08-08T13:35:38.980Z,35.29
2022-08-08T13:38:13.469Z,35.81
2022-08-08T13:40:45.060Z,35.63
2022-08-08T13:43:16.008Z,35.55
2022-08-08T13:45:47.633Z,36.25
2022-08-08T13:48:17.456Z,35.58
2022-08-08T13:50:57.736Z,35.74
2022-08-08T13:53:53.317Z,35.06
2022-08-08T13:56:41.633Z,35.01
2022-08-08T13:59:32.879Z,34.59
2022-08-08T14:02:07.503Z,34.01
2022-08-08T14:04:38.574Z,34.56
2022-08-08T14:07:21.843Z,35.03
2022-08-08T14:10:04.683Z,35.32
2022-08-08T14:12:39.897Z,35.15
2022-08-08T14:15:24.259Z,34.78
2022-08-08T14:18:35.789Z,34.82
2022-08-08T14:21:03.014Z,34.52
2022-08-08T14:24:06.430Z,34.31
2022-08-08T14:26:33.193Z,34.30
2022-08-08T14:29:06.100Z,34.16
2022-08-08T14:32:10.902Z,33.71
2022-08-08T14:34:39.194Z,33.24
2022-08-08T14:37:12.706Z,32.99
2022-08-08T14:39:53.694Z,32.77
2022-08-08T14:42:35.848Z,32.54
2022-08-08T14:45:09.839Z,31.94
2022-08-08T14:47:51.408Z,31.99
2022-08-08T14:50:39.338Z,31.63
2022-08-08T14:53:13.391Z,32.03
2022-08-08T14:55:43.660Z,31.87
2022-08-08T14:58:16.812Z,31.85
2022-08-08T15:00:50.186Z,31.97
2022-08-08T15:03:18.630Z,31.67
2022-08-08T15:05:53.194Z,31.40
2022-08-08T15:08:35.592Z,31.26
2022-08-08T15:11:09.119Z,31.43
2022-08-08T15:13:40.556Z,31.29
2022-08-08T15:16:28.055Z,31.12
2022-08-08T15:18:56.386Z,30.97
2022-08-08T15:21:30.199Z,31.07
2022-08-08T15:23:58.453Z,30.97
2022-08-08T15:26:29.242Z,31.02
2022-08-08T15:28:58.072Z,31.09
2022-08-08T15:32:02.896Z,31.13
2022-08-08T15:34:29.896Z,30.90
2022-08-08T15:37:04.833Z,30.86
2022-08-08T15:39:37.922Z,30.62
2022-08-08T15:42:13.054Z,30.82
2022-08-08T15:44:45.994Z,30.62
2022-08-08T15:47:15.739Z,30.29
2022-08-08T15:49:48.567Z,30.46
2022-08-08T15:52:20.735Z,30.42
2022-08-08T15:54:51.582Z,30.20
2022-08-08T15:57:21.111Z,30.24
2022-08-08T16:00:05.501Z,30.29
2022-08-08T16:02:44.241Z,30.35
2022-08-08T16:05:20.511Z,30.02
2022-08-08T16:07:52.926Z,30.15
2022-08-08T16:13:11.973Z,30.05
2022-08-08T16:13:32.308Z,30.23
2022-08-08T16:16:13.286Z,29.92
2022-08-08T16:18:56.641Z,29.99
2022-08-08T16:21:29.504Z,29.86
2022-08-08T16:24:00.585Z,30.00
2022-08-08T16:26:33.942Z,29.92
2022-08-08T16:29:09.063Z,29.89
2022-08-08T16:31:40.774Z,29.85
2022-08-08T16:34:09.706Z,29.69
2022-08-08T16:36:38.393Z,29.64
2022-08-08T16:39:16.856Z,29.77
2022-08-08T16:42:01.266Z,29.63
2022-08-08T16:44:33.872Z,29.57
2022-08-08T16:47:21.601Z,29.53
2022-08-08T16:49:59.624Z,29.20
2022-08-08T16:55:23.723Z,29.29
2022-08-08T16:55:42.413Z,29.48
2022-08-08T16:58:13.967Z,29.33
2022-08-08T17:00:48.874Z,29.53
2022-08-08T17:03:24.938Z,29.59
2022-08-08T17:06:03.041Z,29.16
2022-08-08T17:08:31.823Z,29.06
2022-08-08T17:11:10.317Z,28.76
2022-08-08T17:13:41.441Z,29.06
2022-08-08T17:16:22.017Z,28.89
2022-08-08T17:18:52.688Z,29.20
2022-08-08T17:21:21.578Z,28.91
2022-08-08T17:23:58.016Z,28.76
2022-08-08T17:26:32.342Z,28.96
2022-08-08T17:29:03.973Z,29.21
2022-08-08T17:31:44.419Z,29.01
2022-08-08T17:34:53.029Z,28.65
2022-08-08T17:37:06.804Z,28.52
2022-08-08T17:40:03.572Z,28.63
2022-08-08T17:42:27.596Z,28.74
2022-08-08T17:44:58.570Z,28.52
2022-08-08T17:47:28.114Z,28.45
2022-08-08T17:50:07.891Z,28.47
2022-08-08T17:52:38.307Z,28.41
2022-08-08T17:56:05.613Z,28.09
2022-08-08T17:58:02.301Z,28.21
2022-08-08T18:00:31.488Z,28.44
2022-08-08T18:03:08.957Z,28.15
2022-08-08T18:05:48.065Z,28.07
2022-08-08T18:08:24.901Z,27.94
2022-08-08T18:11:14.677Z,27.91
2022-08-08T18:13:47.267Z,27.79
2022-08-08T18:16:20.160Z,27.70
2022-08-08T18:18:54.051Z,27.79
2022-08-08T18:22:00.020Z,27.58
2022-08-08T18:24:19.028Z,27.50
2022-08-08T18:26:53.873Z,27.42
2022-08-08T18:29:29.532Z,27.45
2022-08-08T18:32:03.624Z,27.36
2022-08-08T18:34:33.966Z,27.26
2022-08-08T18:37:08.175Z,26.96
2022-08-08T18:39:38.523Z,27.13
2022-08-08T18:42:14.345Z,26.97
2022-08-08T18:44:54.814Z,26.85
2022-08-08T18:47:25.364Z,26.78
2022-08-08T18:49:58.669Z,26.60
2022-08-08T18:52:34.675Z,26.62
2022-08-08T18:55:10.123Z,26.53
2022-08-08T18:57:45.144Z,26.59
2022-08-08T19:00:20.270Z,26.54
2022-08-08T19:03:04.234Z,26.30
2022-08-08T19:05:45.556Z,26.39
2022-08-08T19:08:24.074Z,26.37
2022-08-08T19:10:55.387Z,26.26
2022-08-08T19:13:53.780Z,26.16
2022-08-08T19:16:18.397Z,26.03
2022-08-08T19:18:53.367Z,25.99
2022-08-08T19:21:30.495Z,25.87
2022-08-08T19:24:05.280Z,25.87
2022-08-08T19:26:35.186Z,25.85
2022-08-08T19:29:03.459Z,25.90
2022-08-08T19:31:36.054Z,25.61
2022-08-08T19:34:35.715Z,25.84
2022-08-08T19:36:58.666Z,25.67
2022-08-08T19:39:34.691Z,25.59
2022-08-08T19:42:06.627Z,25.54
2022-08-08T19:44:45.965Z,25.64
2022-08-08T19:47:23.455Z,25.69
2022-08-08T19:49:59.880Z,25.57
2022-08-08T19:52:35.156Z,25.42
2022-08-08T19:55:09.400Z,25.39
2022-08-08T19:57:41.076Z,25.40
2022-08-08T20:00:29.165Z,25.49
2022-08-08T20:03:01.969Z,25.45
2022-08-08T20:06:15.656Z,25.53
2022-08-08T20:08:32.361Z,25.36
2022-08-08T20:11:01.486Z,25.52
2022-08-08T20:14:13.173Z,25.24
2022-08-08T20:16:18.976Z,25.04
2022-08-08T20:18:53.085Z,25.03
2022-08-08T20:21:25.755Z,25.02
2022-08-08T20:23:58.230Z,24.94
2022-08-08T20:26:33.603Z,25.02
2022-08-08T20:29:03.243Z,24.86
2022-08-08T20:32:07.389Z,24.84
2022-08-08T20:34:29.277Z,24.78
2022-08-08T20:36:58.960Z,24.91
2022-08-08T20:39:39.720Z,24.66
2022-08-08T20:42:15.439Z,24.62
2022-08-08T20:44:43.707Z,24.57
2022-08-08T20:47:23.042Z,24.43
2022-08-08T20:49:57.833Z,24.40
2022-08-08T20:52:29.023Z,24.39
2022-08-08T20:54:58.485Z,24.27
2022-08-08T20:57:27.925Z,24.32
2022-08-08T20:59:56.661Z,24.41
2022-08-08T21:02:26.642Z,24.41
2022-08-08T21:05:00.832Z,24.50
2022-08-08T21:07:47.150Z,24.34
2022-08-08T21:10:21.067Z,24.27
2022-08-08T21:12:52.862Z,24.13
2022-08-08T21:16:05.063Z,24.14
2022-08-08T21:18:11.802Z,24.09
2022-08-08T21:20:42.314Z,23.94
2022-08-08T21:23:13.045Z,24.19
2022-08-08T21:25:43.755Z,24.06
2022-08-08T21:28:16.351Z,23.99
2022-08-08T21:30:52.366Z,23.77
2022-08-08T21:33:21.636Z,23.65
2022-08-08T21:36:14.975Z,24.04
2022-08-08T21:38:39.449Z,23.82
2022-08-08T21:41:07.973Z,23.72
2022-08-08T21:43:36.314Z,23.77
2022-08-08T21:48:05.276Z,23.70
2022-08-08T21:48:55.782Z,23.77
2022-08-08T21:54:18.378Z,23.63
2022-08-08T21:54:54.231Z,23.45
2022-08-08T21:57:08.307Z,23.41
2022-08-08T22:00:02.223Z,23.45
2022-08-08T22:02:25.761Z,23.32
2022-08-08T22:04:58.714Z,23.19
2022-08-08T22:07:39.671Z,23.30
2022-08-08T22:10:09.973Z,23.18
2022-08-08T22:12:47.057Z,23.10
2022-08-08T22:15:15.105Z,22.99
2022-08-08T22:17:45.750Z,23.17
2022-08-08T22:20:18.760Z,23.31
2022-08-08T22:22:52.823Z,23.10
2022-08-08T22:25:25.331Z,23.12
2022-08-08T22:28:03.958Z,23.09
2022-08-08T22:30:50.983Z,22.82
2022-08-08T22:34:05.066Z,22.93
2022-08-08T22:36:12.288Z,22.82
2022-08-08T22:38:48.885Z,22.62
2022-08-08T22:41:21.727Z,22.52
2022-08-08T22:44:05.487Z,22.51
2022-08-08T22:46:34.444Z,22.54
2022-08-08T22:49:09.066Z,22.57
2022-08-08T22:51:42.903Z,22.79
2022-08-08T22:54:32.833Z,22.50
2022-08-08T22:57:08.657Z,22.62
2022-08-08T22:59:52.780Z,22.48
2022-08-08T23:02:28.721Z,22.60
2022-08-08T23:04:57.800Z,22.37
2022-08-08T23:07:52.179Z,22.39
2022-08-08T23:10:21.151Z,22.29
2022-08-08T23:12:51.576Z,22.34
2022-08-08T23:16:41.959Z,22.18
2022-08-08T23:18:11.892Z,22.19
2022-08-08T23:20:40.646Z,22.43
2022-08-08T23:23:09.047Z,22.18
2022-08-08T23:25:47.830Z,22.35
2022-08-08T23:28:18.953Z,22.28
2022-08-08T23:30:48.666Z,22.11
2022-08-08T23:33:20.971Z,21.96
2022-08-08T23:36:08.879Z,22.01
2022-08-08T23:38:43.934Z,21.98
2022-08-08T23:41:24.440Z,22.02
2022-08-08T23:43:54.207Z,21.89
2022-08-08T23:49:06.575Z,21.87
2022-08-08T23:49:18.417Z,21.79
2022-08-08T23:52:04.363Z,21.97
2022-08-08T23:54:41.759Z,21.70
2022-08-08T23:57:27.736Z,21.59
